sensor_id;sensor_type;location;lat;lon;timestamp;temperature;humidity
17659;DHT22;8948;51.534;8.262;2023-02-28T00:02:55;2.90;57.60
17659;DHT22;8948;51.534;8.262;2023-02-28T00:07:56;2.80;57.30
17659;DHT22;8948;51.534;8.262;2023-02-28T00:13:00;2.80;57.00
17659;DHT22;8948;51.534;8.262;2023-02-28T00:18:02;2.70;56.30
17659;DHT22;8948;51.534;8.262;2023-02-28T00:23:03;2.60;56.90
17659;DHT22;8948;51.534;8.262;2023-02-28T00:28:04;2.40;57.00
17659;DHT22;8948;51.534;8.262;2023-02-28T00:33:04;2.20;57.80
17659;DHT22;8948;51.534;8.262;2023-02-28T00:38:05;2.10;57.50
17659;DHT22;8948;51.534;8.262;2023-02-28T00:43:05;2.10;56.70
17659;DHT22;8948;51.534;8.262;2023-02-28T00:48:06;1.90;56.40
17659;DHT22;8948;51.534;8.262;2023-02-28T00:53:06;1.80;56.50
17659;DHT22;8948;51.534;8.262;2023-02-28T00:58:07;1.70;56.60
17659;DHT22;8948;51.534;8.262;2023-02-28T01:03:08;1.70;56.50
17659;DHT22;8948;51.534;8.262;2023-02-28T01:08:08;1.80;56.10
17659;DHT22;8948;51.534;8.262;2023-02-28T01:13:09;1.90;56.00
17659;DHT22;8948;51.534;8.262;2023-02-28T01:23:21;1.90;55.70
17659;DHT22;8948;51.534;8.262;2023-02-28T01:28:23;1.80;55.30
17659;DHT22;8948;51.534;8.262;2023-02-28T01:33:24;1.80;55.20
17659;DHT22;8948;51.534;8.262;2023-02-28T01:38:25;1.60;55.50
17659;DHT22;8948;51.534;8.262;2023-02-28T01:43:28;1.60;56.10
17659;DHT22;8948;51.534;8.262;2023-02-28T01:48:32;1.50;56.70
17659;DHT22;8948;51.534;8.262;2023-02-28T01:53:37;1.40;56.60
17659;DHT22;8948;51.534;8.262;2023-02-28T01:58:39;1.30;56.40
17659;DHT22;8948;51.534;8.262;2023-02-28T02:03:39;1.20;56.80
17659;DHT22;8948;51.534;8.262;2023-02-28T02:08:40;1.20;57.40
17659;DHT22;8948;51.534;8.262;2023-02-28T02:34:51;1.10;56.20
17659;DHT22;8948;51.534;8.262;2023-02-28T02:40:11;1.10;55.70
17659;DHT22;8948;51.534;8.262;2023-02-28T02:45:30;1.10;55.20
17659;DHT22;8948;51.534;8.262;2023-02-28T02:50:43;1.00;55.10
17659;DHT22;8948;51.534;8.262;2023-02-28T02:55:46;0.90;55.30
17659;DHT22;8948;51.534;8.262;2023-02-28T03:00:55;0.80;55.50
17659;DHT22;8948;51.534;8.262;2023-02-28T03:05:59;0.70;55.90
17659;DHT22;8948;51.534;8.262;2023-02-28T03:11:04;0.70;56.20
17659;DHT22;8948;51.534;8.262;2023-02-28T03:16:27;0.70;56.10
17659;DHT22;8948;51.534;8.262;2023-02-28T03:21:42;0.70;56.40
17659;DHT22;8948;51.534;8.262;2023-02-28T03:26:47;0.60;55.90
17659;DHT22;8948;51.534;8.262;2023-02-28T03:31:59;0.60;55.40
17659;DHT22;8948;51.534;8.262;2023-02-28T03:37:16;0.50;55.20
17659;DHT22;8948;51.534;8.262;2023-02-28T03:42:22;0.40;55.40
17659;DHT22;8948;51.534;8.262;2023-02-28T03:47:29;0.40;55.60
17659;DHT22;8948;51.534;8.262;2023-02-28T03:52:35;0.30;55.90
17659;DHT22;8948;51.534;8.262;2023-02-28T04:02:48;0.10;56.90
17659;DHT22;8948;51.534;8.262;2023-02-28T04:07:52;0.10;56.60
17659;DHT22;8948;51.534;8.262;2023-02-28T04:12:54;0.00;57.00
17659;DHT22;8948;51.534;8.262;2023-02-28T04:17:54;0.00;57.10
17659;DHT22;8948;51.534;8.262;2023-02-28T04:22:55;-0.10;57.30
17659;DHT22;8948;51.534;8.262;2023-02-28T04:27:55;-0.10;57.10
17659;DHT22;8948;51.534;8.262;2023-02-28T04:32:56;-0.10;56.40
17659;DHT22;8948;51.534;8.262;2023-02-28T04:37:56;-0.10;55.80
17659;DHT22;8948;51.534;8.262;2023-02-28T04:42:57;-0.10;56.00
17659;DHT22;8948;51.534;8.262;2023-02-28T04:47:58;-0.20;56.80
17659;DHT22;8948;51.534;8.262;2023-02-28T04:52:58;-0.20;57.30
17659;DHT22;8948;51.534;8.262;2023-02-28T04:57:59;-0.30;57.20
17659;DHT22;8948;51.534;8.262;2023-02-28T05:03:00;-0.40;57.70
17659;DHT22;8948;51.534;8.262;2023-02-28T05:08:00;-0.40;58.00
17659;DHT22;8948;51.534;8.262;2023-02-28T05:13:01;-0.40;58.40
17659;DHT22;8948;51.534;8.262;2023-02-28T05:18:01;-0.50;58.00
17659;DHT22;8948;51.534;8.262;2023-02-28T05:23:02;-0.60;57.80
17659;DHT22;8948;51.534;8.262;2023-02-28T05:28:03;-0.70;57.60
17659;DHT22;8948;51.534;8.262;2023-02-28T05:33:04;-0.70;57.70
17659;DHT22;8948;51.534;8.262;2023-02-28T05:38:05;-0.70;57.90
17659;DHT22;8948;51.534;8.262;2023-02-28T05:43:05;-0.80;58.00
17659;DHT22;8948;51.534;8.262;2023-02-28T05:48:07;-0.90;57.90
17659;DHT22;8948;51.534;8.262;2023-02-28T05:53:08;-0.90;58.50
17659;DHT22;8948;51.534;8.262;2023-02-28T05:58:08;-1.00;58.80
17659;DHT22;8948;51.534;8.262;2023-02-28T06:03:09;-1.00;58.40
17659;DHT22;8948;51.534;8.262;2023-02-28T06:08:10;-1.00;58.00
17659;DHT22;8948;51.534;8.262;2023-02-28T06:13:11;-1.00;58.40
17659;DHT22;8948;51.534;8.262;2023-02-28T06:18:12;-1.00;58.80
17659;DHT22;8948;51.534;8.262;2023-02-28T06:23:13;-1.00;59.40
17659;DHT22;8948;51.534;8.262;2023-02-28T06:28:14;-0.90;59.20
17659;DHT22;8948;51.534;8.262;2023-02-28T06:33:14;-0.80;59.60
17659;DHT22;8948;51.534;8.262;2023-02-28T06:38:15;-0.70;59.10
17659;DHT22;8948;51.534;8.262;2023-02-28T06:43:15;0.20;80.80
17659;DHT22;8948;51.534;8.262;2023-02-28T06:48:16;1.10;74.40
17659;DHT22;8948;51.534;8.262;2023-02-28T06:53:18;0.90;59.80
17659;DHT22;8948;51.534;8.262;2023-02-28T06:58:18;0.70;65.10
17659;DHT22;8948;51.534;8.262;2023-02-28T07:03:19;0.70;59.70
17659;DHT22;8948;51.534;8.262;2023-02-28T07:08:20;0.50;59.00
17659;DHT22;8948;51.534;8.262;2023-02-28T07:13:21;0.50;58.30
17659;DHT22;8948;51.534;8.262;2023-02-28T07:18:22;0.50;57.60
17659;DHT22;8948;51.534;8.262;2023-02-28T07:23:22;0.40;58.80
17659;DHT22;8948;51.534;8.262;2023-02-28T07:28:23;0.40;58.30
17659;DHT22;8948;51.534;8.262;2023-02-28T07:33:24;0.40;59.30
17659;DHT22;8948;51.534;8.262;2023-02-28T07:38:25;0.50;59.20
17659;DHT22;8948;51.534;8.262;2023-02-28T07:43:25;0.60;59.20
17659;DHT22;8948;51.534;8.262;2023-02-28T07:48:26;0.50;58.90
17659;DHT22;8948;51.534;8.262;2023-02-28T07:53:27;0.50;58.50
17659;DHT22;8948;51.534;8.262;2023-02-28T07:58:28;0.40;57.70
17659;DHT22;8948;51.534;8.262;2023-02-28T08:03:29;0.60;58.00
17659;DHT22;8948;51.534;8.262;2023-02-28T08:08:30;0.70;58.00
17659;DHT22;8948;51.534;8.262;2023-02-28T08:13:31;1.00;67.90
17659;DHT22;8948;51.534;8.262;2023-02-28T08:18:32;1.60;62.10
17659;DHT22;8948;51.534;8.262;2023-02-28T08:23:33;1.50;58.70
17659;DHT22;8948;51.534;8.262;2023-02-28T08:28:34;1.50;58.90
17659;DHT22;8948;51.534;8.262;2023-02-28T08:33:34;1.50;59.20
17659;DHT22;8948;51.534;8.262;2023-02-28T08:38:36;1.50;58.60
17659;DHT22;8948;51.534;8.262;2023-02-28T08:43:37;1.60;58.90
17659;DHT22;8948;51.534;8.262;2023-02-28T08:48:39;1.70;58.80
17659;DHT22;8948;51.534;8.262;2023-02-28T08:53:40;1.80;58.00
17659;DHT22;8948;51.534;8.262;2023-02-28T08:58:41;1.90;58.40
17659;DHT22;8948;51.534;8.262;2023-02-28T09:03:42;1.90;57.60
17659;DHT22;8948;51.534;8.262;2023-02-28T09:08:43;2.10;57.40
17659;DHT22;8948;51.534;8.262;2023-02-28T09:13:43;3.10;56.70
17659;DHT22;8948;51.534;8.262;2023-02-28T09:18:44;3.60;55.80
17659;DHT22;8948;51.534;8.262;2023-02-28T09:23:47;3.90;53.00
17659;DHT22;8948;51.534;8.262;2023-02-28T09:28:48;4.10;52.20
17659;DHT22;8948;51.534;8.262;2023-02-28T09:33:50;4.30;51.10
17659;DHT22;8948;51.534;8.262;2023-02-28T09:38:51;4.50;51.90
17659;DHT22;8948;51.534;8.262;2023-02-28T09:43:56;4.60;50.40
17659;DHT22;8948;51.534;8.262;2023-02-28T09:49:00;5.00;51.50
17659;DHT22;8948;51.534;8.262;2023-02-28T09:54:02;5.50;50.50
17659;DHT22;8948;51.534;8.262;2023-02-28T10:04:59;6.00;49.20
17659;DHT22;8948;51.534;8.262;2023-02-28T10:10:04;6.10;49.20
17659;DHT22;8948;51.534;8.262;2023-02-28T10:15:08;6.40;46.70
17659;DHT22;8948;51.534;8.262;2023-02-28T10:20:19;6.60;44.20
17659;DHT22;8948;51.534;8.262;2023-02-28T10:25:29;6.80;43.60
17659;DHT22;8948;51.534;8.262;2023-02-28T10:30:29;6.90;43.10
17659;DHT22;8948;51.534;8.262;2023-02-28T10:35:30;6.90;42.80
17659;DHT22;8948;51.534;8.262;2023-02-28T10:40:33;6.90;43.20
17659;DHT22;8948;51.534;8.262;2023-02-28T10:45:36;7.00;42.70
17659;DHT22;8948;51.534;8.262;2023-02-28T11:01:14;7.90;44.50
17659;DHT22;8948;51.534;8.262;2023-02-28T11:06:21;8.20;43.10
17659;DHT22;8948;51.534;8.262;2023-02-28T11:11:25;8.10;43.60
17659;DHT22;8948;51.534;8.262;2023-02-28T11:16:37;8.30;42.20
17659;DHT22;8948;51.534;8.262;2023-02-28T11:21:38;8.20;40.70
17659;DHT22;8948;51.534;8.262;2023-02-28T11:26:43;7.60;40.90
17659;DHT22;8948;51.534;8.262;2023-02-28T11:31:43;7.20;41.50
17659;DHT22;8948;51.534;8.262;2023-02-28T11:36:54;7.30;42.30
17659;DHT22;8948;51.534;8.262;2023-02-28T11:42:08;7.40;43.40
17659;DHT22;8948;51.534;8.262;2023-02-28T11:47:30;8.00;42.20
17659;DHT22;8948;51.534;8.262;2023-02-28T11:52:45;8.30;41.40
17659;DHT22;8948;51.534;8.262;2023-02-28T12:03:38;7.90;41.30
17659;DHT22;8948;51.534;8.262;2023-02-28T12:19:51;7.40;42.60
17659;DHT22;8948;51.534;8.262;2023-02-28T12:30:22;7.90;41.80
17659;DHT22;8948;51.534;8.262;2023-02-28T12:35:33;7.60;41.80
17659;DHT22;8948;51.534;8.262;2023-02-28T12:41:02;7.50;42.30
17659;DHT22;8948;51.534;8.262;2023-02-28T12:46:11;8.20;42.50
17659;DHT22;8948;51.534;8.262;2023-02-28T12:51:13;9.00;43.20
17659;DHT22;8948;51.534;8.262;2023-02-28T13:02:02;9.80;39.50
17659;DHT22;8948;51.534;8.262;2023-02-28T13:12:52;10.60;38.90
17659;DHT22;8948;51.534;8.262;2023-02-28T13:17:55;11.00;38.30
17659;DHT22;8948;51.534;8.262;2023-02-28T13:22:56;11.00;39.60
17659;DHT22;8948;51.534;8.262;2023-02-28T13:28:07;10.80;38.10
17659;DHT22;8948;51.534;8.262;2023-02-28T13:33:31;10.60;38.80
17659;DHT22;8948;51.534;8.262;2023-02-28T13:38:39;10.80;37.10
17659;DHT22;8948;51.534;8.262;2023-02-28T13:49:38;11.10;35.70
17659;DHT22;8948;51.534;8.262;2023-02-28T14:05:19;11.50;34.40
17659;DHT22;8948;51.534;8.262;2023-02-28T14:10:31;11.30;36.90
17659;DHT22;8948;51.534;8.262;2023-02-28T14:20:33;11.50;35.80
17659;DHT22;8948;51.534;8.262;2023-02-28T14:25:41;11.90;37.00
17659;DHT22;8948;51.534;8.262;2023-02-28T14:36:12;11.70;36.40
17659;DHT22;8948;51.534;8.262;2023-02-28T14:46:43;11.90;35.10
17659;DHT22;8948;51.534;8.262;2023-02-28T14:51:45;11.70;34.80
17659;DHT22;8948;51.534;8.262;2023-02-28T14:56:49;11.60;34.20
17659;DHT22;8948;51.534;8.262;2023-02-28T15:01:50;11.60;35.40
17659;DHT22;8948;51.534;8.262;2023-02-28T15:07:10;11.40;36.50
17659;DHT22;8948;51.534;8.262;2023-02-28T15:12:14;11.20;34.40
17659;DHT22;8948;51.534;8.262;2023-02-28T15:17:22;11.20;35.60
17659;DHT22;8948;51.534;8.262;2023-02-28T15:22:35;10.90;34.30
17659;DHT22;8948;51.534;8.262;2023-02-28T15:27:43;10.60;36.20
17659;DHT22;8948;51.534;8.262;2023-02-28T15:32:45;10.30;35.90
17659;DHT22;8948;51.534;8.262;2023-02-28T15:38:26;10.40;36.60
17659;DHT22;8948;51.534;8.262;2023-02-28T15:43:33;10.50;35.40
17659;DHT22;8948;51.534;8.262;2023-02-28T15:48:57;10.50;35.00
17659;DHT22;8948;51.534;8.262;2023-02-28T15:59:05;10.20;36.90
17659;DHT22;8948;51.534;8.262;2023-02-28T16:04:17;10.00;37.20
17659;DHT22;8948;51.534;8.262;2023-02-28T16:09:18;10.10;37.20
17659;DHT22;8948;51.534;8.262;2023-02-28T16:14:22;10.00;37.90
17659;DHT22;8948;51.534;8.262;2023-02-28T16:19:23;10.10;38.50
17659;DHT22;8948;51.534;8.262;2023-02-28T16:24:24;9.80;38.90
17659;DHT22;8948;51.534;8.262;2023-02-28T16:29:30;9.60;39.00
17659;DHT22;8948;51.534;8.262;2023-02-28T16:34:31;9.00;40.00
17659;DHT22;8948;51.534;8.262;2023-02-28T16:39:31;8.70;40.60
17659;DHT22;8948;51.534;8.262;2023-02-28T16:44:34;8.60;40.80
17659;DHT22;8948;51.534;8.262;2023-02-28T16:49:35;8.50;40.80
17659;DHT22;8948;51.534;8.262;2023-02-28T16:54:35;8.00;42.10
17659;DHT22;8948;51.534;8.262;2023-02-28T16:59:36;7.90;42.40
17659;DHT22;8948;51.534;8.262;2023-02-28T17:04:37;7.70;42.70
17659;DHT22;8948;51.534;8.262;2023-02-28T17:09:37;7.70;42.80
17659;DHT22;8948;51.534;8.262;2023-02-28T17:14:38;7.60;42.80
17659;DHT22;8948;51.534;8.262;2023-02-28T17:19:38;7.40;43.30
17659;DHT22;8948;51.534;8.262;2023-02-28T17:24:43;7.40;43.10
17659;DHT22;8948;51.534;8.262;2023-02-28T17:29:45;7.20;43.90
17659;DHT22;8948;51.534;8.262;2023-02-28T17:34:47;7.20;43.90
17659;DHT22;8948;51.534;8.262;2023-02-28T17:39:47;7.10;44.00
17659;DHT22;8948;51.534;8.262;2023-02-28T17:44:48;7.00;44.40
17659;DHT22;8948;51.534;8.262;2023-02-28T17:49:49;7.00;44.50
17659;DHT22;8948;51.534;8.262;2023-02-28T17:54:49;7.00;44.20
17659;DHT22;8948;51.534;8.262;2023-02-28T17:59:50;6.80;44.40
17659;DHT22;8948;51.534;8.262;2023-02-28T18:04:50;6.50;44.90
17659;DHT22;8948;51.534;8.262;2023-02-28T18:09:51;6.60;45.10
17659;DHT22;8948;51.534;8.262;2023-02-28T18:14:51;6.50;45.10
17659;DHT22;8948;51.534;8.262;2023-02-28T18:19:52;6.40;45.50
17659;DHT22;8948;51.534;8.262;2023-02-28T18:24:52;6.30;45.80
17659;DHT22;8948;51.534;8.262;2023-02-28T18:29:53;6.20;45.80
17659;DHT22;8948;51.534;8.262;2023-02-28T18:34:53;6.20;45.80
17659;DHT22;8948;51.534;8.262;2023-02-28T18:39:54;6.00;46.00
17659;DHT22;8948;51.534;8.262;2023-02-28T18:44:54;6.00;46.00
17659;DHT22;8948;51.534;8.262;2023-02-28T18:49:55;5.90;45.90
17659;DHT22;8948;51.534;8.262;2023-02-28T18:54:55;5.80;45.80
17659;DHT22;8948;51.534;8.262;2023-02-28T18:59:56;5.70;46.10
17659;DHT22;8948;51.534;8.262;2023-02-28T19:04:56;5.70;46.00
17659;DHT22;8948;51.534;8.262;2023-02-28T19:09:57;5.50;46.40
17659;DHT22;8948;51.534;8.262;2023-02-28T19:14:57;5.50;46.30
17659;DHT22;8948;51.534;8.262;2023-02-28T19:19:58;5.20;46.50
17659;DHT22;8948;51.534;8.262;2023-02-28T19:24:59;5.10;47.20
17659;DHT22;8948;51.534;8.262;2023-02-28T19:29:59;5.20;46.90
17659;DHT22;8948;51.534;8.262;2023-02-28T19:35:00;5.10;47.00
17659;DHT22;8948;51.534;8.262;2023-02-28T19:40:01;5.10;47.20
17659;DHT22;8948;51.534;8.262;2023-02-28T19:45:03;4.90;47.70
17659;DHT22;8948;51.534;8.262;2023-02-28T19:50:05;4.80;48.20
17659;DHT22;8948;51.534;8.262;2023-02-28T19:55:05;4.80;48.00
17659;DHT22;8948;51.534;8.262;2023-02-28T20:00:07;4.90;48.00
17659;DHT22;8948;51.534;8.262;2023-02-28T20:05:08;4.90;47.80
17659;DHT22;8948;51.534;8.262;2023-02-28T20:10:09;4.80;48.00
17659;DHT22;8948;51.534;8.262;2023-02-28T20:15:10;4.70;48.20
17659;DHT22;8948;51.534;8.262;2023-02-28T20:20:11;4.70;48.00
17659;DHT22;8948;51.534;8.262;2023-02-28T20:25:12;4.60;48.30
17659;DHT22;8948;51.534;8.262;2023-02-28T20:30:12;4.60;48.60
17659;DHT22;8948;51.534;8.262;2023-02-28T20:35:13;4.50;48.70
17659;DHT22;8948;51.534;8.262;2023-02-28T20:40:14;4.30;48.70
17659;DHT22;8948;51.534;8.262;2023-02-28T20:45:14;4.30;49.10
17659;DHT22;8948;51.534;8.262;2023-02-28T20:50:15;4.10;49.20
17659;DHT22;8948;51.534;8.262;2023-02-28T20:55:16;4.00;49.40
17659;DHT22;8948;51.534;8.262;2023-02-28T21:00:17;4.00;49.80
17659;DHT22;8948;51.534;8.262;2023-02-28T21:05:18;3.90;50.00
17659;DHT22;8948;51.534;8.262;2023-02-28T21:10:19;3.70;50.30
17659;DHT22;8948;51.534;8.262;2023-02-28T21:15:19;3.70;50.60
17659;DHT22;8948;51.534;8.262;2023-02-28T21:20:22;3.60;50.60
17659;DHT22;8948;51.534;8.262;2023-02-28T21:25:22;3.50;51.00
17659;DHT22;8948;51.534;8.262;2023-02-28T21:30:23;3.40;51.20
17659;DHT22;8948;51.534;8.262;2023-02-28T21:35:23;3.30;51.50
17659;DHT22;8948;51.534;8.262;2023-02-28T21:40:24;3.20;51.80
17659;DHT22;8948;51.534;8.262;2023-02-28T21:45:24;3.10;52.00
17659;DHT22;8948;51.534;8.262;2023-02-28T21:50:26;3.00;52.30
17659;DHT22;8948;51.534;8.262;2023-02-28T21:55:26;2.90;52.30
17659;DHT22;8948;51.534;8.262;2023-02-28T22:00:27;2.90;52.40
17659;DHT22;8948;51.534;8.262;2023-02-28T22:05:28;2.80;52.40
17659;DHT22;8948;51.534;8.262;2023-02-28T22:10:29;2.80;52.30
17659;DHT22;8948;51.534;8.262;2023-02-28T22:15:29;2.70;52.70
17659;DHT22;8948;51.534;8.262;2023-02-28T22:20:31;2.70;52.50
17659;DHT22;8948;51.534;8.262;2023-02-28T22:25:36;2.60;52.90
17659;DHT22;8948;51.534;8.262;2023-02-28T22:30:36;2.60;52.30
17659;DHT22;8948;51.534;8.262;2023-02-28T22:35:37;2.70;52.50
17659;DHT22;8948;51.534;8.262;2023-02-28T22:40:38;2.70;52.60
17659;DHT22;8948;51.534;8.262;2023-02-28T22:45:39;2.60;52.90
17659;DHT22;8948;51.534;8.262;2023-02-28T22:50:39;2.70;53.00
17659;DHT22;8948;51.534;8.262;2023-02-28T22:55:40;2.60;53.20
17659;DHT22;8948;51.534;8.262;2023-02-28T23:00:40;2.70;53.00
17659;DHT22;8948;51.534;8.262;2023-02-28T23:05:41;2.60;53.10
17659;DHT22;8948;51.534;8.262;2023-02-28T23:10:42;2.50;53.10
17659;DHT22;8948;51.534;8.262;2023-02-28T23:15:43;2.50;53.10
17659;DHT22;8948;51.534;8.262;2023-02-28T23:20:44;2.30;53.10
17659;DHT22;8948;51.534;8.262;2023-02-28T23:25:44;2.20;53.80
17659;DHT22;8948;51.534;8.262;2023-02-28T23:30:45;2.20;53.90
17659;DHT22;8948;51.534;8.262;2023-02-28T23:35:45;2.10;53.60
17659;DHT22;8948;51.534;8.262;2023-02-28T23:40:46;2.00;53.90
17659;DHT22;8948;51.534;8.262;2023-02-28T23:45:54;2.00;54.20
17659;DHT22;8948;51.534;8.262;2023-02-28T23:51:06;1.60;55.20
17659;DHT22;8948;51.534;8.262;2023-02-28T23:56:09;1.60;55.20
